createdAt,value
2018-10-18T00:01:04.757Z,93.10
2018-10-18T00:03:32.984Z,93.10
2018-10-18T00:06:01.269Z,93.20
2018-10-18T00:08:29.575Z,93.30
2018-10-18T00:10:57.712Z,93.40
2018-10-18T00:13:25.903Z,93.40
2018-10-18T00:15:54.038Z,93.20
2018-10-18T00:18:22.221Z,93.40
2018-10-18T00:20:50.388Z,93.50
2018-10-18T00:23:18.527Z,93.60
2018-10-18T00:25:46.773Z,93.70
2018-10-18T00:28:14.905Z,93.90
2018-10-18T00:30:43.336Z,94.20
2018-10-18T00:33:12.416Z,94.20
2018-10-18T00:35:40.525Z,94.60
2018-10-18T00:38:08.729Z,94.60
2018-10-18T00:40:36.859Z,94.80
2018-10-18T00:43:05.011Z,94.80
2018-10-18T00:45:33.133Z,95.00
2018-10-18T00:48:01.574Z,95.30
2018-10-18T00:50:29.664Z,95.10
2018-10-18T00:52:57.796Z,95.10
2018-10-18T00:55:25.955Z,95.10
2018-10-18T00:57:59.166Z,95.10
2018-10-18T01:00:27.602Z,94.90
2018-10-18T01:02:55.785Z,95.30
2018-10-18T01:05:23.943Z,94.90
2018-10-18T01:07:52.116Z,95.00
2018-10-18T01:10:20.231Z,95.10
2018-10-18T01:12:48.682Z,95.00
2018-10-18T01:15:17.422Z,95.00
2018-10-18T01:17:45.545Z,95.00
2018-10-18T01:20:13.758Z,94.90
2018-10-18T01:22:41.824Z,94.90
2018-10-18T01:25:09.945Z,95.10
2018-10-18T01:27:38.092Z,95.00
2018-10-18T01:30:06.737Z,95.10
2018-10-18T01:32:34.816Z,95.60
2018-10-18T01:35:03.117Z,95.10
2018-10-18T01:37:31.262Z,95.00
2018-10-18T01:39:59.404Z,95.00
2018-10-18T01:42:27.554Z,95.10
2018-10-18T01:44:55.715Z,95.30
2018-10-18T01:47:23.875Z,95.50
2018-10-18T01:49:52.051Z,95.50
2018-10-18T01:52:20.152Z,95.40
2018-10-18T01:54:48.324Z,95.40
2018-10-18T01:57:16.733Z,95.40
2018-10-18T01:59:45.154Z,95.70
2018-10-18T02:02:14.049Z,95.90
2018-10-18T02:04:42.138Z,95.80
2018-10-18T02:07:10.309Z,95.80
2018-10-18T02:09:38.437Z,96.00
2018-10-18T02:12:13.107Z,95.60
2018-10-18T02:14:41.239Z,95.60
2018-10-18T02:17:09.412Z,95.90
2018-10-18T02:19:37.559Z,95.20
2018-10-18T02:22:05.984Z,95.10
2018-10-18T02:24:34.114Z,95.20
2018-10-18T02:27:02.281Z,95.10
2018-10-18T02:29:30.408Z,95.00
2018-10-18T02:31:58.556Z,95.10
2018-10-18T02:34:26.708Z,95.20
2018-10-18T02:36:54.821Z,95.30
2018-10-18T02:39:23.054Z,95.30
2018-10-18T02:41:51.505Z,95.20
2018-10-18T02:44:20.112Z,94.90
2018-10-18T02:46:48.255Z,95.30
2018-10-18T02:49:16.392Z,95.40
2018-10-18T02:51:44.510Z,95.50
2018-10-18T02:54:12.736Z,95.60
2018-10-18T02:56:40.785Z,95.60
2018-10-18T02:59:08.927Z,95.60
2018-10-18T03:01:37.133Z,95.70
2018-10-18T03:04:05.424Z,95.60
2018-10-18T03:06:33.557Z,95.50
2018-10-18T03:09:01.680Z,95.50
2018-10-18T03:11:29.827Z,95.40
2018-10-18T03:13:57.968Z,95.30
2018-10-18T03:16:26.123Z,95.30
2018-10-18T03:18:54.262Z,95.30
2018-10-18T03:21:22.392Z,95.30
2018-10-18T03:23:50.604Z,95.20
2018-10-18T03:26:18.739Z,95.30
2018-10-18T03:28:46.875Z,95.30
2018-10-18T03:31:15.014Z,95.20
2018-10-18T03:33:43.135Z,95.10
2018-10-18T03:36:11.574Z,95.10
2018-10-18T03:38:40.232Z,95.10
2018-10-18T03:41:08.375Z,95.20
2018-10-18T03:43:37.024Z,95.10
2018-10-18T03:46:05.166Z,95.00
2018-10-18T03:48:33.336Z,95.00
2018-10-18T03:51:01.789Z,95.00
2018-10-18T03:53:29.939Z,95.00
2018-10-18T03:55:58.085Z,95.00
2018-10-18T03:58:26.352Z,95.00
2018-10-18T04:00:54.508Z,95.10
2018-10-18T04:03:22.762Z,95.00
2018-10-18T04:05:51.544Z,94.90
2018-10-18T04:08:20.371Z,95.10
2018-10-18T04:10:48.951Z,95.60
2018-10-18T04:13:17.173Z,95.20
2018-10-18T04:15:45.269Z,95.10
2018-10-18T04:18:13.436Z,95.10
2018-10-18T04:20:41.592Z,95.00
2018-10-18T04:23:09.729Z,95.00
2018-10-18T04:25:37.977Z,95.00
2018-10-18T04:28:06.045Z,94.90
2018-10-18T04:30:34.209Z,94.90
2018-10-18T04:33:02.497Z,95.10
2018-10-18T04:35:30.659Z,95.10
2018-10-18T04:37:59.155Z,95.20
2018-10-18T04:40:27.272Z,95.20
2018-10-18T04:42:55.398Z,95.20
2018-10-18T04:45:23.546Z,95.20
2018-10-18T04:47:51.794Z,95.20
2018-10-18T04:50:20.453Z,95.20
2018-10-18T04:52:48.672Z,95.10
2018-10-18T04:55:16.911Z,95.10
2018-10-18T04:57:44.963Z,95.10
2018-10-18T05:00:13.124Z,95.10
2018-10-18T05:02:41.341Z,95.10
2018-10-18T05:05:20.909Z,95.20
2018-10-18T05:07:49.035Z,95.30
2018-10-18T05:10:17.274Z,95.20
2018-10-18T05:12:45.490Z,95.10
2018-10-18T05:15:13.571Z,95.00
2018-10-18T05:17:41.872Z,95.00
2018-10-18T05:20:10.004Z,94.90
2018-10-18T05:22:38.149Z,95.00
2018-10-18T05:25:06.348Z,95.00
2018-10-18T05:27:34.473Z,95.10
2018-10-18T05:30:02.629Z,95.20
2018-10-18T05:32:30.758Z,95.20
2018-10-18T05:34:58.875Z,95.40
2018-10-18T05:37:27.066Z,95.50
2018-10-18T05:39:55.168Z,95.60
2018-10-18T05:42:23.347Z,95.60
2018-10-18T05:44:51.605Z,95.70
2018-10-18T05:47:20.641Z,95.70
2018-10-18T05:49:49.210Z,95.80
2018-10-18T05:52:17.603Z,95.80
2018-10-18T05:54:46.184Z,95.90
2018-10-18T05:57:14.471Z,95.80
2018-10-18T05:59:42.684Z,95.80
2018-10-18T06:02:10.964Z,95.80
2018-10-18T06:04:39.147Z,95.90
2018-10-18T06:07:07.316Z,95.90
2018-10-18T06:09:35.454Z,95.80
2018-10-18T06:12:04.113Z,95.70
2018-10-18T06:14:32.819Z,95.70
2018-10-18T06:17:00.945Z,95.60
2018-10-18T06:19:29.108Z,95.50
2018-10-18T06:21:57.235Z,95.50
2018-10-18T06:24:25.385Z,95.50
2018-10-18T06:26:53.792Z,95.00
2018-10-18T06:34:18.036Z,94.90
2018-10-18T06:36:46.215Z,95.20
2018-10-18T06:39:14.680Z,95.10
2018-10-18T06:41:42.789Z,95.10
2018-10-18T06:49:07.504Z,94.80
2018-10-18T06:51:35.891Z,95.20
2018-10-18T06:54:04.599Z,95.00
2018-10-18T06:56:32.965Z,94.90
2018-10-18T06:59:01.220Z,94.80
2018-10-18T07:01:29.531Z,94.70
2018-10-18T07:03:57.815Z,94.50
2018-10-18T07:06:26.059Z,94.50
2018-10-18T07:08:54.385Z,94.50
2018-10-18T07:11:22.572Z,94.50
2018-10-18T07:13:50.721Z,94.60
2018-10-18T07:16:18.860Z,94.60
2018-10-18T07:18:46.980Z,94.60
2018-10-18T07:21:15.257Z,94.60
2018-10-18T07:23:43.413Z,94.40
2018-10-18T07:26:11.528Z,94.20
2018-10-18T07:28:39.664Z,94.00
2018-10-18T07:31:07.815Z,93.80
2018-10-18T07:33:35.953Z,93.70
2018-10-18T07:36:04.365Z,93.60
2018-10-18T07:38:33.023Z,93.20
2018-10-18T07:41:01.178Z,93.20
2018-10-18T07:43:29.273Z,93.00
2018-10-18T07:45:57.420Z,92.70
2018-10-18T07:48:25.548Z,92.50
2018-10-18T07:50:53.718Z,92.40
2018-10-18T07:53:21.927Z,92.70
2018-10-18T07:55:50.060Z,92.50
2018-10-18T07:58:18.191Z,92.50
2018-10-18T08:00:46.567Z,92.50
2018-10-18T08:03:14.491Z,92.60
2018-10-18T08:05:42.624Z,92.60
2018-10-18T08:08:11.096Z,93.00
2018-10-18T08:10:39.222Z,93.00
2018-10-18T08:13:07.480Z,93.10
2018-10-18T08:15:35.546Z,93.20
2018-10-18T08:18:03.696Z,93.20
2018-10-18T08:20:31.895Z,93.00
2018-10-18T08:23:00.072Z,93.00
2018-10-18T08:25:28.547Z,93.10
2018-10-18T08:27:56.676Z,93.10
2018-10-18T08:30:25.089Z,93.20
2018-10-18T08:32:53.346Z,93.20
2018-10-18T08:35:21.484Z,93.20
2018-10-18T08:37:49.675Z,93.30
2018-10-18T08:40:17.813Z,93.10
2018-10-18T08:42:46.340Z,93.00
2018-10-18T08:45:14.463Z,92.90
2018-10-18T08:47:43.448Z,92.60
2018-10-18T08:50:12.323Z,92.70
2018-10-18T08:52:40.592Z,92.80
2018-10-18T08:55:10.945Z,92.40
2018-10-18T08:57:39.017Z,91.60
2018-10-18T09:00:10.800Z,91.40
2018-10-18T09:02:39.060Z,91.40
2018-10-18T09:05:07.654Z,91.50
2018-10-18T09:07:36.109Z,91.70
2018-10-18T09:10:04.717Z,91.30
2018-10-18T09:12:32.622Z,91.10
2018-10-18T09:15:00.949Z,90.90
2018-10-18T09:17:29.533Z,90.20
2018-10-18T09:19:57.952Z,87.90
2018-10-18T09:22:26.082Z,86.10
2018-10-18T09:24:54.317Z,84.20
2018-10-18T09:27:22.531Z,84.60
2018-10-18T09:29:50.710Z,83.90
2018-10-18T09:32:18.831Z,85.00
2018-10-18T09:34:46.970Z,83.20
2018-10-18T09:37:15.201Z,81.40
2018-10-18T09:39:43.264Z,78.30
2018-10-18T09:42:11.432Z,75.10
2018-10-18T09:44:39.630Z,73.50
2018-10-18T09:47:07.748Z,71.00
2018-10-18T09:49:35.875Z,69.60
2018-10-18T09:52:04.014Z,65.20
2018-10-18T09:54:32.561Z,62.70
2018-10-18T09:57:01.154Z,58.90
2018-10-18T09:59:29.276Z,55.00
2018-10-18T10:02:03.323Z,53.30
2018-10-18T10:04:31.512Z,51.70
2018-10-18T10:06:59.794Z,51.00
2018-10-18T10:09:27.904Z,50.20
2018-10-18T10:11:56.046Z,50.60
2018-10-18T10:14:24.180Z,51.40
2018-10-18T10:16:52.310Z,52.80
2018-10-18T10:19:21.704Z,53.10
2018-10-18T10:21:49.827Z,54.40
2018-10-18T10:24:17.957Z,54.80
2018-10-18T10:26:46.088Z,54.20
2018-10-18T10:29:14.249Z,54.80
2018-10-18T10:31:42.422Z,54.80
2018-10-18T10:34:10.552Z,54.30
2018-10-18T10:36:38.704Z,54.90
2018-10-18T10:41:35.364Z,53.70
2018-10-18T10:46:34.953Z,52.00
2018-10-18T10:58:55.484Z,53.80
2018-10-18T11:06:22.155Z,50.90
2018-10-18T11:08:50.829Z,48.60
2018-10-18T11:11:19.491Z,45.30
2018-10-18T11:13:47.724Z,43.80
2018-10-18T11:21:14.095Z,42.70
2018-10-18T11:48:21.841Z,48.00
2018-10-18T12:10:33.827Z,47.30
2018-10-18T12:35:13.547Z,47.70
2018-10-18T12:42:40.231Z,49.50
2018-10-18T13:07:21.229Z,50.90
2018-10-18T13:09:49.435Z,51.50
2018-10-18T13:12:17.614Z,53.30
2018-10-18T13:14:45.688Z,55.00
2018-10-18T13:17:13.820Z,56.10
2018-10-18T13:19:41.948Z,56.50
2018-10-18T13:22:10.069Z,56.70
2018-10-18T13:24:38.281Z,56.60
2018-10-18T13:27:06.464Z,56.70
2018-10-18T13:29:34.609Z,57.50
2018-10-18T13:32:02.790Z,57.30
2018-10-18T13:34:30.875Z,58.30
2018-10-18T13:36:59.000Z,58.80
2018-10-18T13:39:27.444Z,59.70
2018-10-18T13:41:55.952Z,60.20
2018-10-18T13:44:24.088Z,60.40
2018-10-18T13:49:20.243Z,61.10
2018-10-18T14:06:41.582Z,64.20
2018-10-18T14:09:09.691Z,64.30
2018-10-18T14:11:37.836Z,64.10
2018-10-18T14:16:33.932Z,64.20
2018-10-18T14:28:53.895Z,66.20
2018-10-18T14:31:22.035Z,67.50
2018-10-18T14:41:14.097Z,68.30
2018-10-18T14:48:39.162Z,69.10
2018-10-18T14:58:31.248Z,72.20
2018-10-18T15:00:59.402Z,72.50
2018-10-18T15:03:33.112Z,73.40
2018-10-18T15:13:25.063Z,78.10
2018-10-18T15:25:45.604Z,82.30
2018-10-18T15:40:33.780Z,84.70
2018-10-18T15:43:01.904Z,84.80
2018-10-18T15:45:30.116Z,85.70
2018-10-18T15:47:58.229Z,85.20
2018-10-18T15:50:26.378Z,86.10
2018-10-18T15:52:54.523Z,86.20
2018-10-18T15:55:22.631Z,85.80
2018-10-18T15:57:50.744Z,86.00
2018-10-18T16:00:20.789Z,86.00
2018-10-18T16:02:48.868Z,86.10
2018-10-18T16:37:22.124Z,92.60
2018-10-18T16:47:14.254Z,93.10
2018-10-18T17:14:21.764Z,93.80
2018-10-18T17:19:17.883Z,93.80
2018-10-18T17:26:41.889Z,92.50
2018-10-18T17:31:38.131Z,92.60
2018-10-18T17:41:29.959Z,92.60
2018-10-18T17:53:50.184Z,92.20
2018-10-18T18:01:14.371Z,92.00
2018-10-18T18:03:42.561Z,91.60
2018-10-18T18:06:11.210Z,92.00
2018-10-18T18:11:07.097Z,92.00
2018-10-18T18:13:35.212Z,92.40
2018-10-18T18:16:03.614Z,92.40
2018-10-18T18:18:31.688Z,92.00
2018-10-18T18:20:59.810Z,92.30
2018-10-18T18:23:27.981Z,92.30
2018-10-18T18:25:56.113Z,92.50
2018-10-18T18:28:24.220Z,92.40
2018-10-18T18:30:52.348Z,92.50
2018-10-18T18:33:20.539Z,92.70
2018-10-18T18:35:48.793Z,92.70
2018-10-18T18:38:17.024Z,92.60
2018-10-18T18:40:45.135Z,92.50
2018-10-18T18:43:13.277Z,92.60
2018-10-18T18:45:41.406Z,92.60
2018-10-18T18:48:09.520Z,92.60
2018-10-18T18:50:37.705Z,92.80
2018-10-18T18:53:05.919Z,92.80
2018-10-18T18:55:34.220Z,92.90
2018-10-18T18:58:02.533Z,92.60
2018-10-18T19:00:30.636Z,92.80
2018-10-18T19:02:58.757Z,92.70
2018-10-18T19:05:26.858Z,92.80
2018-10-18T19:07:54.961Z,92.80
2018-10-18T19:10:23.125Z,92.70
2018-10-18T19:12:51.249Z,92.70
2018-10-18T19:15:19.401Z,92.80
2018-10-18T19:17:47.539Z,92.80
2018-10-18T19:20:15.696Z,93.10
2018-10-18T19:22:43.931Z,93.00
2018-10-18T19:25:11.992Z,93.00
2018-10-18T19:27:40.127Z,93.00
2018-10-18T19:30:09.440Z,92.70
2018-10-18T19:32:37.553Z,92.80
2018-10-18T19:35:05.688Z,93.10
2018-10-18T19:37:33.809Z,93.10
2018-10-18T19:40:01.936Z,93.20
2018-10-18T19:42:30.073Z,93.30
2018-10-18T19:44:58.192Z,93.60
2018-10-18T19:47:26.308Z,93.20
2018-10-18T19:49:54.485Z,93.60
2018-10-18T19:52:23.183Z,93.80
2018-10-18T19:54:51.411Z,93.90
2018-10-18T19:57:19.533Z,94.00
2018-10-18T19:59:47.636Z,94.00
2018-10-18T20:02:15.747Z,94.00
2018-10-18T20:04:43.888Z,93.80
2018-10-18T20:07:12.046Z,93.70
2018-10-18T20:09:40.584Z,94.00
2018-10-18T20:12:08.716Z,94.00
2018-10-18T20:14:36.850Z,93.90
2018-10-18T20:17:05.981Z,94.30
2018-10-18T20:19:34.109Z,94.20
2018-10-18T20:22:02.240Z,93.90
2018-10-18T20:24:30.431Z,93.80
2018-10-18T20:26:58.522Z,93.90
2018-10-18T20:29:26.800Z,93.90
2018-10-18T20:31:54.995Z,93.90
2018-10-18T20:34:23.208Z,93.70
2018-10-18T20:36:51.325Z,93.90
2018-10-18T20:39:19.502Z,93.70
2018-10-18T20:41:47.911Z,93.40
2018-10-18T20:44:16.055Z,93.30
2018-10-18T20:46:44.365Z,93.40
2018-10-18T20:49:12.448Z,93.50
2018-10-18T20:51:40.560Z,93.60
2018-10-18T20:54:08.758Z,93.50
2018-10-18T20:56:36.853Z,93.60
2018-10-18T20:59:05.227Z,93.50
2018-10-18T21:01:33.453Z,93.30
2018-10-18T21:04:01.612Z,93.20
2018-10-18T21:06:29.902Z,93.60
2018-10-18T21:08:57.869Z,93.50
2018-10-18T21:11:26.007Z,93.50
2018-10-18T21:13:54.132Z,93.60
2018-10-18T21:16:22.865Z,93.40
2018-10-18T21:18:50.961Z,93.50
2018-10-18T21:21:19.092Z,93.40
2018-10-18T21:23:47.203Z,93.20
2018-10-18T21:26:15.329Z,93.40
2018-10-18T21:28:43.757Z,93.10
2018-10-18T21:31:12.204Z,93.00
2018-10-18T21:33:40.294Z,92.50
2018-10-18T21:36:08.475Z,92.40
2018-10-18T21:38:36.600Z,92.20
2018-10-18T21:41:05.113Z,92.80
2018-10-18T21:43:33.172Z,92.60
2018-10-18T21:46:01.569Z,92.50
2018-10-18T21:48:30.212Z,92.40
2018-10-18T21:50:58.682Z,92.30
2018-10-18T21:53:26.777Z,92.60
2018-10-18T21:55:55.334Z,92.40
2018-10-18T21:58:23.492Z,92.30
2018-10-18T22:00:51.593Z,92.20
2018-10-18T22:03:19.722Z,92.30
2018-10-18T22:05:47.863Z,92.10
2018-10-18T22:08:16.223Z,92.10
2018-10-18T22:10:44.343Z,92.00
2018-10-18T22:13:12.463Z,92.00
2018-10-18T22:15:40.675Z,91.70
2018-10-18T22:18:08.771Z,91.70
2018-10-18T22:20:36.871Z,91.80
2018-10-18T22:23:05.013Z,91.60
2018-10-18T22:25:33.138Z,91.40
2018-10-18T22:28:01.260Z,91.70
2018-10-18T22:30:29.352Z,91.40
2018-10-18T22:32:57.458Z,91.70
2018-10-18T22:35:25.663Z,91.60
2018-10-18T22:37:53.736Z,91.60
2018-10-18T22:40:22.761Z,91.70
2018-10-18T22:42:50.953Z,91.50
2018-10-18T22:45:19.072Z,91.50
2018-10-18T22:47:47.159Z,91.40
2018-10-18T22:50:15.272Z,91.40
2018-10-18T22:52:43.473Z,91.50
2018-10-18T22:55:11.572Z,91.40
2018-10-18T22:57:39.688Z,91.50
2018-10-18T23:00:08.167Z,91.40
2018-10-18T23:02:36.306Z,91.20
2018-10-18T23:05:04.593Z,91.20
2018-10-18T23:07:32.668Z,91.40
2018-10-18T23:10:00.965Z,91.20
2018-10-18T23:12:29.089Z,91.30
2018-10-18T23:14:57.243Z,91.10
2018-10-18T23:17:25.640Z,91.20
2018-10-18T23:19:53.765Z,91.20
2018-10-18T23:22:21.933Z,91.10
2018-10-18T23:24:50.121Z,91.10
2018-10-18T23:27:17.581Z,91.10
2018-10-18T23:29:45.676Z,91.20
2018-10-18T23:32:13.785Z,91.10
2018-10-18T23:34:41.904Z,91.30
2018-10-18T23:37:10.024Z,91.30
2018-10-18T23:39:38.120Z,91.20
2018-10-18T23:42:06.235Z,91.10
2018-10-18T23:44:34.376Z,91.20
2018-10-18T23:47:02.933Z,91.10
2018-10-18T23:49:31.019Z,91.00
2018-10-18T23:51:59.515Z,90.90
2018-10-18T23:54:27.632Z,90.90
2018-10-18T23:56:55.828Z,90.80
2018-10-18T23:59:23.860Z,91.10
